createdAt,value
2022-11-29T00:01:37.789Z,19.97
2022-11-29T00:04:05.348Z,21.43
2022-11-29T00:06:34.202Z,21.37
2022-11-29T00:09:08.369Z,19.47
2022-11-29T00:11:56.576Z,19.97
2022-11-29T00:14:25.488Z,20.03
2022-11-29T00:16:56.217Z,21.00
2022-11-29T00:19:23.601Z,22.17
2022-11-29T00:21:51.575Z,21.53
2022-11-29T00:24:19.157Z,20.33
2022-11-29T00:26:47.104Z,19.83
2022-11-29T00:29:14.705Z,19.47
2022-11-29T00:31:42.496Z,20.27
2022-11-29T00:34:11.424Z,19.70
2022-11-29T00:36:38.789Z,20.47
2022-11-29T00:39:06.861Z,19.80
2022-11-29T00:41:34.283Z,18.57
2022-11-29T00:44:01.576Z,19.13
2022-11-29T00:46:28.900Z,19.67
2022-11-29T00:48:56.343Z,19.93
2022-11-29T00:51:23.714Z,20.50
2022-11-29T00:53:51.184Z,20.80
2022-11-29T00:56:18.528Z,19.57
2022-11-29T00:58:45.965Z,18.63
2022-11-29T01:01:13.286Z,18.70
2022-11-29T01:03:40.808Z,19.23
2022-11-29T01:06:15.065Z,19.53
2022-11-29T01:08:42.845Z,19.63
2022-11-29T01:11:19.475Z,19.10
2022-11-29T01:13:47.409Z,19.67
2022-11-29T01:16:15.866Z,20.33
2022-11-29T01:18:43.748Z,20.07
2022-11-29T01:21:16.659Z,19.00
2022-11-29T01:23:45.648Z,18.77
2022-11-29T01:26:19.057Z,19.27
2022-11-29T01:28:48.254Z,20.33
2022-11-29T01:31:21.873Z,19.70
2022-11-29T01:33:54.752Z,19.70
2022-11-29T01:36:22.770Z,20.90
2022-11-29T01:38:50.118Z,21.00
2022-11-29T01:41:21.841Z,18.53
2022-11-29T01:44:00.233Z,19.93
2022-11-29T01:46:37.009Z,19.43
2022-11-29T01:49:13.611Z,19.83
2022-11-29T01:51:47.471Z,19.50
2022-11-29T01:54:15.206Z,19.23
2022-11-29T01:56:45.239Z,19.07
2022-11-29T01:59:15.834Z,19.80
2022-11-29T02:01:43.207Z,20.00
2022-11-29T02:04:11.360Z,20.50
2022-11-29T02:06:39.692Z,21.60
2022-11-29T02:09:22.544Z,19.20
2022-11-29T02:12:06.743Z,19.77
2022-11-29T02:14:48.431Z,20.20
2022-11-29T02:17:40.561Z,20.20
2022-11-29T02:20:29.912Z,20.13
2022-11-29T02:23:15.367Z,21.97
2022-11-29T02:26:18.354Z,21.57
2022-11-29T02:28:56.688Z,20.27
2022-11-29T02:31:50.435Z,19.07
2022-11-29T02:35:05.665Z,19.83
2022-11-29T02:37:41.748Z,19.57
2022-11-29T02:40:27.576Z,19.83
2022-11-29T02:43:32.183Z,19.70
2022-11-29T02:46:08.856Z,21.50
2022-11-29T02:48:48.532Z,21.23
2022-11-29T02:51:18.946Z,22.93
2022-11-29T02:54:10.872Z,20.80
2022-11-29T02:56:46.679Z,19.83
2022-11-29T02:59:52.730Z,20.37
2022-11-29T03:02:42.484Z,19.63
2022-11-29T03:05:37.192Z,20.13
2022-11-29T03:08:15.528Z,19.23
2022-11-29T03:11:17.673Z,19.83
2022-11-29T03:13:53.832Z,18.83
2022-11-29T03:16:45.366Z,19.03
2022-11-29T03:19:26.917Z,18.90
2022-11-29T03:22:25.434Z,17.83
2022-11-29T03:25:10.526Z,19.90
2022-11-29T03:28:06.300Z,17.73
2022-11-29T03:30:38.286Z,18.03
2022-11-29T03:33:15.129Z,17.97
2022-11-29T03:35:57.737Z,19.23
2022-11-29T03:38:41.429Z,18.20
2022-11-29T03:41:17.943Z,17.80
2022-11-29T03:44:07.081Z,18.93
2022-11-29T03:47:03.547Z,21.03
2022-11-29T03:49:46.009Z,21.57
2022-11-29T03:52:23.768Z,18.60
2022-11-29T03:54:57.204Z,20.03
2022-11-29T03:57:51.126Z,20.33
2022-11-29T04:00:19.135Z,19.93
2022-11-29T04:03:21.008Z,18.90
2022-11-29T04:06:10.862Z,20.33
2022-11-29T04:09:22.612Z,20.60
2022-11-29T04:12:16.036Z,17.33
2022-11-29T04:15:04.144Z,19.63
2022-11-29T04:17:43.404Z,19.87
2022-11-29T04:20:21.016Z,20.83
2022-11-29T04:23:21.921Z,19.00
2022-11-29T04:25:59.263Z,19.77
2022-11-29T04:28:38.441Z,18.67
2022-11-29T04:31:27.700Z,19.17
2022-11-29T04:33:57.770Z,20.10
2022-11-29T04:36:30.856Z,18.27
2022-11-29T04:39:20.003Z,19.47
2022-11-29T04:41:50.245Z,18.67
2022-11-29T04:44:49.499Z,20.10
2022-11-29T04:47:50.348Z,21.43
2022-11-29T04:50:33.087Z,19.20
2022-11-29T04:53:29.516Z,19.30
2022-11-29T04:56:10.098Z,19.93
2022-11-29T04:58:40.241Z,20.07
2022-11-29T05:01:36.136Z,19.70
2022-11-29T05:04:10.959Z,19.50
2022-11-29T05:06:59.884Z,19.07
2022-11-29T05:09:55.127Z,20.73
2022-11-29T05:12:46.776Z,18.53
2022-11-29T05:15:26.250Z,22.60
2022-11-29T05:18:22.868Z,20.40
2022-11-29T05:21:08.771Z,23.50
2022-11-29T05:24:10.145Z,21.87
2022-11-29T05:26:50.433Z,24.83
2022-11-29T05:29:44.836Z,20.17
2022-11-29T05:32:32.686Z,20.47
2022-11-29T05:35:02.711Z,19.53
2022-11-29T05:37:42.179Z,20.47
2022-11-29T05:40:09.589Z,19.83
2022-11-29T05:43:14.925Z,21.43
2022-11-29T05:45:58.220Z,18.53
2022-11-29T05:48:37.461Z,19.03
2022-11-29T05:51:22.064Z,20.00
2022-11-29T05:54:19.750Z,18.87
2022-11-29T05:57:20.617Z,19.83
2022-11-29T05:59:51.075Z,18.17
2022-11-29T06:02:45.950Z,20.10
2022-11-29T06:05:22.869Z,19.00
2022-11-29T06:08:05.103Z,19.30
2022-11-29T06:10:36.787Z,19.70
2022-11-29T06:13:18.467Z,19.80
2022-11-29T06:16:08.271Z,20.53
2022-11-29T06:18:41.815Z,19.60
2022-11-29T06:21:37.384Z,22.03
2022-11-29T06:24:27.232Z,20.17
2022-11-29T06:27:09.431Z,21.50
2022-11-29T06:30:07.032Z,20.47
2022-11-29T06:33:02.349Z,20.63
2022-11-29T06:35:53.239Z,19.40
2022-11-29T06:38:29.310Z,20.50
2022-11-29T06:41:02.026Z,21.50
2022-11-29T06:43:30.814Z,21.73
2022-11-29T06:46:25.655Z,24.23
2022-11-29T06:49:03.803Z,21.53
2022-11-29T06:52:02.025Z,22.97
2022-11-29T06:54:48.574Z,20.73
2022-11-29T06:57:53.667Z,20.50
2022-11-29T07:00:25.573Z,20.00
2022-11-29T07:03:18.744Z,20.57
2022-11-29T07:05:46.837Z,18.80
2022-11-29T07:08:18.648Z,16.13
2022-11-29T07:10:49.950Z,17.80
2022-11-29T07:13:18.509Z,16.63
2022-11-29T07:16:15.045Z,18.43
2022-11-29T07:18:48.354Z,19.50
2022-11-29T07:21:23.629Z,18.30
2022-11-29T07:24:03.767Z,19.73
2022-11-29T07:26:59.429Z,20.10
2022-11-29T07:29:35.310Z,26.30
2022-11-29T07:32:50.764Z,21.20
2022-11-29T07:35:36.260Z,21.40
2022-11-29T07:38:17.819Z,21.53
2022-11-29T07:41:02.440Z,22.73
2022-11-29T07:43:52.274Z,27.30
2022-11-29T07:46:19.751Z,23.03
2022-11-29T07:48:47.216Z,23.97
2022-11-29T07:51:15.007Z,23.03
2022-11-29T07:53:44.320Z,23.90
2022-11-29T07:56:12.507Z,23.47
2022-11-29T07:58:40.208Z,22.20
2022-11-29T08:01:07.671Z,23.57
2022-11-29T08:03:37.886Z,23.67
2022-11-29T08:06:05.301Z,25.00
2022-11-29T08:08:32.719Z,22.13
2022-11-29T08:11:00.100Z,31.10
2022-11-29T08:13:27.526Z,28.00
2022-11-29T08:15:55.440Z,26.47
2022-11-29T08:18:22.816Z,24.17
2022-11-29T08:20:50.321Z,25.87
2022-11-29T08:23:19.983Z,24.87
2022-11-29T08:25:48.413Z,25.13
2022-11-29T08:28:15.718Z,31.57
2022-11-29T08:30:43.171Z,24.67
2022-11-29T08:33:10.504Z,27.60
2022-11-29T08:35:39.012Z,27.83
2022-11-29T08:38:14.590Z,25.13
2022-11-29T08:40:42.359Z,24.90
2022-11-29T08:43:09.749Z,25.03
2022-11-29T08:45:37.172Z,29.10
2022-11-29T08:48:04.913Z,28.53
2022-11-29T08:50:32.361Z,24.10
2022-11-29T08:53:19.095Z,26.60
2022-11-29T08:55:46.861Z,29.87
2022-11-29T08:58:15.676Z,27.87
2022-11-29T09:00:46.852Z,28.70
2022-11-29T09:03:59.671Z,29.87
2022-11-29T09:06:34.420Z,31.00
2022-11-29T09:09:01.805Z,27.53
2022-11-29T09:11:31.025Z,28.47
2022-11-29T09:14:01.482Z,25.33
2022-11-29T09:16:37.345Z,29.23
2022-11-29T09:19:06.124Z,27.23
2022-11-29T09:21:36.644Z,38.57
2022-11-29T09:24:06.482Z,33.80
2022-11-29T09:26:36.053Z,27.73
2022-11-29T09:29:05.748Z,27.40
2022-11-29T09:31:34.993Z,25.87
2022-11-29T09:34:02.624Z,32.07
2022-11-29T09:36:30.726Z,40.37
2022-11-29T09:39:02.555Z,37.20
2022-11-29T09:41:55.225Z,36.97
2022-11-29T09:44:46.463Z,43.83
2022-11-29T09:47:35.823Z,39.20
2022-11-29T09:50:33.963Z,40.53
2022-11-29T09:53:14.881Z,38.23
2022-11-29T09:56:02.598Z,44.60
2022-11-29T09:58:37.099Z,45.40
2022-11-29T10:01:10.846Z,41.60
2022-11-29T10:03:46.736Z,55.47
2022-11-29T10:06:27.692Z,41.63
2022-11-29T10:09:33.784Z,48.37
2022-11-29T10:12:20.200Z,51.23
2022-11-29T10:15:04.975Z,45.77
2022-11-29T10:18:01.142Z,46.77
2022-11-29T10:20:39.161Z,49.87
2022-11-29T10:23:37.014Z,47.87
2022-11-29T10:26:07.962Z,43.60
2022-11-29T10:28:37.453Z,44.67
2022-11-29T10:31:26.664Z,45.03
2022-11-29T10:33:55.819Z,45.63
2022-11-29T10:36:45.558Z,47.17
2022-11-29T10:39:28.307Z,46.83
2022-11-29T10:41:59.614Z,44.23
2022-11-29T10:44:27.816Z,46.17
2022-11-29T10:46:56.062Z,52.97
2022-11-29T10:49:28.113Z,48.27
2022-11-29T10:51:55.587Z,49.90
2022-11-29T10:54:25.878Z,48.57
2022-11-29T10:56:56.504Z,48.40
2022-11-29T10:59:32.860Z,46.50
2022-11-29T11:02:01.626Z,49.70
2022-11-29T11:04:33.430Z,68.20
2022-11-29T11:07:04.099Z,49.23
2022-11-29T11:09:50.740Z,44.90
2022-11-29T11:12:22.044Z,50.63
2022-11-29T11:14:51.367Z,47.13
2022-11-29T11:17:37.495Z,48.03
2022-11-29T11:20:23.879Z,49.87
2022-11-29T11:23:03.614Z,53.17
2022-11-29T11:25:57.936Z,47.47
2022-11-29T11:28:42.027Z,52.27
2022-11-29T11:31:11.693Z,45.87
2022-11-29T11:33:44.062Z,49.17
2022-11-29T11:36:20.445Z,45.23
2022-11-29T11:39:12.627Z,46.00
2022-11-29T11:42:02.908Z,50.47
2022-11-29T11:44:52.470Z,45.23
2022-11-29T11:47:27.008Z,41.70
2022-11-29T11:50:00.377Z,53.87
2022-11-29T11:52:42.011Z,53.00
2022-11-29T11:55:21.167Z,40.43
2022-11-29T11:58:00.525Z,44.93
2022-11-29T12:01:05.206Z,47.63
2022-11-29T12:03:45.735Z,42.93
2022-11-29T12:06:20.946Z,46.73
2022-11-29T12:08:50.923Z,44.13
2022-11-29T12:11:21.716Z,47.83
2022-11-29T12:13:53.752Z,41.87
2022-11-29T12:16:34.472Z,48.37
2022-11-29T12:19:18.094Z,46.67
2022-11-29T12:21:52.429Z,45.40
2022-11-29T12:24:36.739Z,48.87
2022-11-29T12:27:06.002Z,48.50
2022-11-29T12:29:35.081Z,45.97
2022-11-29T12:32:25.093Z,44.73
2022-11-29T12:34:59.126Z,45.43
2022-11-29T12:37:51.369Z,50.13
2022-11-29T12:47:02.157Z,46.73
2022-11-29T12:59:18.016Z,44.40
2022-11-29T13:01:54.407Z,46.20
2022-11-29T13:04:59.954Z,44.77
2022-11-29T13:07:45.822Z,50.20
2022-11-29T13:10:43.875Z,45.97
2022-11-29T13:13:37.204Z,45.47
2022-11-29T13:16:20.197Z,43.10
2022-11-29T13:22:18.485Z,43.77
2022-11-29T13:24:50.786Z,43.83
2022-11-29T13:27:31.068Z,40.60
2022-11-29T13:30:01.627Z,40.63
2022-11-29T13:32:40.061Z,38.27
2022-11-29T13:35:34.479Z,40.33
2022-11-29T13:38:13.185Z,39.93
2022-11-29T13:40:57.510Z,41.67
2022-11-29T13:43:42.992Z,37.57
2022-11-29T13:46:22.930Z,40.13
2022-11-29T13:48:53.504Z,44.73
2022-11-29T13:55:14.378Z,36.23
2022-11-29T14:00:45.845Z,40.73
2022-11-29T14:03:28.681Z,41.47
2022-11-29T14:06:02.469Z,39.73
2022-11-29T14:08:54.618Z,37.93
2022-11-29T14:11:33.280Z,41.37
2022-11-29T14:14:00.629Z,38.63
2022-11-29T14:17:01.720Z,39.50
2022-11-29T14:19:36.685Z,38.33
2022-11-29T14:22:06.716Z,35.30
2022-11-29T14:24:37.275Z,35.27
2022-11-29T14:27:09.904Z,41.10
2022-11-29T14:29:53.740Z,35.53
2022-11-29T14:32:26.909Z,36.43
2022-11-29T14:35:20.142Z,36.17
2022-11-29T14:38:24.018Z,37.17
2022-11-29T14:41:25.124Z,34.70
2022-11-29T14:44:27.923Z,39.83
2022-11-29T14:47:06.634Z,32.20
2022-11-29T14:49:43.859Z,33.43
2022-11-29T14:52:14.400Z,37.07
2022-11-29T14:54:54.727Z,35.47
2022-11-29T14:57:47.748Z,35.63
2022-11-29T15:00:21.719Z,31.93
2022-11-29T15:02:58.821Z,31.10
2022-11-29T15:05:35.792Z,31.13
2022-11-29T15:08:22.528Z,33.53
2022-11-29T15:10:54.140Z,29.57
2022-11-29T15:13:39.284Z,27.73
2022-11-29T15:16:33.582Z,35.57
2022-11-29T15:19:12.119Z,31.80
2022-11-29T15:21:56.158Z,29.17
2022-11-29T15:24:28.987Z,26.93
2022-11-29T15:27:02.096Z,27.60
2022-11-29T15:29:31.536Z,24.17
2022-11-29T15:32:04.585Z,25.73
2022-11-29T15:34:40.075Z,25.10
2022-11-29T15:43:35.154Z,24.43
2022-11-29T15:46:02.750Z,29.90
2022-11-29T15:48:33.713Z,23.93
2022-11-29T15:54:18.959Z,22.67
2022-11-29T15:56:58.474Z,20.27
2022-11-29T15:59:35.976Z,20.07
2022-11-29T16:02:37.015Z,20.77
2022-11-29T16:05:17.702Z,20.47
2022-11-29T16:07:47.920Z,21.73
2022-11-29T16:10:20.503Z,20.97
2022-11-29T16:13:03.729Z,20.63
2022-11-29T16:15:36.243Z,19.67
2022-11-29T16:18:14.084Z,21.83
2022-11-29T16:20:41.624Z,21.23
2022-11-29T16:23:14.948Z,30.10
2022-11-29T16:26:02.034Z,34.23
2022-11-29T16:28:37.013Z,26.23
2022-11-29T16:31:05.457Z,29.43
2022-11-29T16:33:32.923Z,29.47
2022-11-29T16:36:13.925Z,27.97
2022-11-29T16:38:54.210Z,23.40
2022-11-29T16:41:32.600Z,24.83
2022-11-29T16:44:03.269Z,27.63
2022-11-29T16:46:33.910Z,29.17
2022-11-29T16:49:23.252Z,26.37
2022-11-29T16:51:51.842Z,26.50
2022-11-29T16:54:24.180Z,26.80
2022-11-29T16:56:53.168Z,28.50
2022-11-29T16:59:27.129Z,24.93
2022-11-29T17:01:56.564Z,26.27
2022-11-29T17:04:25.297Z,28.60
2022-11-29T17:06:56.807Z,26.67
2022-11-29T17:09:31.241Z,27.47
2022-11-29T17:12:00.470Z,27.33
2022-11-29T17:14:29.439Z,30.57
2022-11-29T17:16:57.605Z,28.33
2022-11-29T17:19:28.197Z,28.50
2022-11-29T17:21:55.933Z,27.10
2022-11-29T17:24:28.860Z,27.90
2022-11-29T17:27:02.020Z,25.97
2022-11-29T17:29:29.664Z,25.63
2022-11-29T17:31:57.068Z,26.97
2022-11-29T17:34:24.853Z,30.00
2022-11-29T17:36:57.403Z,27.20
2022-11-29T17:39:28.896Z,29.50
2022-11-29T17:41:56.921Z,26.40
2022-11-29T17:44:24.977Z,29.83
2022-11-29T17:46:52.396Z,30.63
2022-11-29T17:49:19.794Z,29.40
2022-11-29T17:51:52.314Z,28.47
2022-11-29T17:54:22.004Z,26.20
2022-11-29T17:56:49.924Z,27.00
2022-11-29T17:59:17.659Z,25.87
2022-11-29T18:01:47.101Z,25.03
2022-11-29T18:04:15.249Z,28.87
2022-11-29T18:06:43.548Z,26.67
2022-11-29T18:09:11.203Z,27.57
2022-11-29T18:11:47.617Z,27.53
2022-11-29T18:14:28.156Z,27.50
2022-11-29T18:16:55.850Z,30.97
2022-11-29T18:19:24.167Z,28.13
2022-11-29T18:21:52.280Z,26.80
2022-11-29T18:24:19.946Z,29.33
2022-11-29T18:26:47.697Z,31.07
2022-11-29T18:29:15.469Z,29.73
2022-11-29T18:31:44.875Z,28.53
2022-11-29T18:34:13.978Z,25.17
2022-11-29T18:36:46.553Z,27.33
2022-11-29T18:39:16.777Z,29.03
2022-11-29T18:41:48.118Z,27.67
2022-11-29T18:44:17.042Z,25.40
2022-11-29T18:46:45.392Z,32.27
2022-11-29T18:49:17.885Z,30.57
2022-11-29T18:51:46.394Z,28.53
2022-11-29T18:54:15.293Z,27.80
2022-11-29T18:56:43.698Z,27.60
2022-11-29T18:59:14.694Z,22.10
2022-11-29T19:01:43.776Z,20.73
2022-11-29T19:04:16.843Z,18.80
2022-11-29T19:06:44.253Z,19.77
2022-11-29T19:09:19.095Z,24.27
2022-11-29T19:11:49.551Z,25.73
2022-11-29T19:14:17.400Z,24.97
2022-11-29T19:16:46.832Z,25.97
2022-11-29T19:19:14.312Z,31.03
2022-11-29T19:21:42.103Z,24.47
2022-11-29T19:24:14.546Z,28.47
2022-11-29T19:26:44.839Z,25.50
2022-11-29T19:29:13.699Z,30.07
2022-11-29T19:31:41.792Z,40.17
2022-11-29T19:34:10.564Z,43.30
2022-11-29T19:36:43.030Z,46.57
2022-11-29T19:39:13.396Z,38.80
2022-11-29T19:41:43.689Z,41.83
2022-11-29T19:44:11.748Z,40.17
2022-11-29T19:46:45.701Z,37.60
2022-11-29T19:49:13.222Z,36.70
2022-11-29T19:51:41.108Z,37.07
2022-11-29T19:54:10.071Z,33.70
2022-11-29T19:56:38.893Z,29.13
2022-11-29T19:59:08.729Z,33.27
2022-11-29T20:01:42.053Z,29.83
2022-11-29T20:04:13.040Z,26.33
2022-11-29T20:06:41.317Z,29.53
2022-11-29T20:09:10.089Z,28.20
2022-11-29T20:11:37.599Z,29.83
2022-11-29T20:14:06.199Z,32.50
2022-11-29T20:16:34.346Z,27.63
2022-11-29T20:19:02.012Z,28.00
2022-11-29T20:21:32.209Z,29.27
2022-11-29T20:24:02.334Z,30.87
2022-11-29T20:26:31.259Z,28.73
2022-11-29T20:28:59.665Z,29.13
2022-11-29T20:31:28.648Z,28.67
2022-11-29T20:34:00.290Z,28.53
2022-11-29T20:37:15.019Z,28.93
2022-11-29T20:39:56.945Z,29.47
2022-11-29T20:42:24.312Z,27.53
2022-11-29T20:45:02.721Z,26.00
2022-11-29T20:47:55.681Z,25.93
2022-11-29T20:50:29.124Z,26.60
2022-11-29T20:53:40.895Z,25.90
2022-11-29T20:56:09.897Z,26.17
2022-11-29T20:58:38.381Z,27.97
2022-11-29T21:01:07.324Z,28.07
2022-11-29T21:03:34.988Z,26.13
2022-11-29T21:06:04.777Z,25.73
2022-11-29T21:08:32.683Z,31.50
2022-11-29T21:11:10.139Z,26.93
2022-11-29T21:13:38.355Z,26.30
2022-11-29T21:16:06.200Z,28.57
2022-11-29T21:18:34.083Z,26.70
2022-11-29T21:21:24.559Z,26.10
2022-11-29T21:23:55.250Z,27.13
2022-11-29T21:26:28.920Z,26.40
2022-11-29T21:29:16.341Z,24.60
2022-11-29T21:31:46.112Z,26.47
2022-11-29T21:34:14.188Z,26.50
2022-11-29T21:36:42.920Z,25.70
2022-11-29T21:39:14.471Z,27.60
2022-11-29T21:41:41.934Z,23.97
2022-11-29T21:44:09.248Z,25.00
2022-11-29T21:46:36.716Z,23.40
2022-11-29T21:49:04.738Z,25.67
2022-11-29T21:51:32.068Z,27.00
2022-11-29T21:53:59.664Z,26.40
2022-11-29T21:56:29.051Z,24.03
2022-11-29T21:58:56.490Z,27.23
2022-11-29T22:01:23.983Z,26.80
2022-11-29T22:03:53.684Z,25.97
2022-11-29T22:06:24.044Z,25.40
2022-11-29T22:08:51.634Z,22.80
2022-11-29T22:11:30.777Z,25.27
2022-11-29T22:14:15.812Z,24.27
2022-11-29T22:16:57.843Z,33.37
2022-11-29T22:19:33.572Z,62.50
2022-11-29T22:22:03.516Z,48.57
2022-11-29T22:24:33.711Z,32.60
2022-11-29T22:27:01.927Z,33.47
2022-11-29T22:29:30.315Z,25.00
2022-11-29T22:31:59.186Z,28.00
2022-11-29T22:34:27.268Z,23.83
2022-11-29T22:36:55.292Z,25.23
2022-11-29T22:39:23.866Z,26.13
2022-11-29T22:41:54.680Z,27.37
2022-11-29T22:44:23.775Z,28.00
2022-11-29T22:46:51.361Z,25.97
2022-11-29T22:49:19.114Z,26.13
2022-11-29T22:51:46.473Z,24.23
2022-11-29T22:54:17.292Z,27.60
2022-11-29T22:56:45.802Z,24.77
2022-11-29T22:59:13.336Z,29.03
2022-11-29T23:01:41.663Z,30.03
2022-11-29T23:04:10.514Z,28.17
2022-11-29T23:06:41.358Z,24.23
2022-11-29T23:09:18.844Z,30.17
2022-11-29T23:11:50.908Z,30.20
2022-11-29T23:14:19.711Z,29.33
2022-11-29T23:16:47.267Z,29.23
2022-11-29T23:19:16.613Z,29.77
2022-11-29T23:21:45.909Z,31.07
2022-11-29T23:24:15.281Z,27.93
2022-11-29T23:26:47.437Z,30.50
2022-11-29T23:29:17.590Z,28.23
2022-11-29T23:31:46.584Z,26.97
2022-11-29T23:34:14.378Z,27.70
2022-11-29T23:36:41.811Z,26.73
2022-11-29T23:39:09.215Z,22.60
2022-11-29T23:41:36.913Z,21.43
2022-11-29T23:44:05.343Z,18.33
2022-11-29T23:46:33.059Z,20.60
2022-11-29T23:49:00.589Z,20.50
2022-11-29T23:51:27.966Z,20.37
2022-11-29T23:53:55.488Z,19.90
2022-11-29T23:56:22.924Z,18.13
2022-11-29T23:58:50.727Z,20.83
